sensor_id;sensor_type;location;lat;lon;timestamp;noise_LAeq;noise_LA_min;noise_LA_max;noise_LA01;noise_LA95
64996;Laerm;51545;51.568;6.998;2023-04-03T00:00:30;36.06;31.23;46.66;;
64996;Laerm;51545;51.568;6.998;2023-04-03T00:02:56;34.70;30.92;42.77;;
64996;Laerm;51545;51.568;6.998;2023-04-03T00:05:22;37.78;32.89;45.29;;
64996;Laerm;51545;51.568;6.998;2023-04-03T00:07:47;37.54;32.00;44.49;;
64996;Laerm;51545;51.568;6.998;2023-04-03T00:10:15;37.74;31.47;43.89;;
64996;Laerm;51545;51.568;6.998;2023-04-03T00:12:40;37.29;30.61;45.41;;
64996;Laerm;51545;51.568;6.998;2023-04-03T00:15:06;37.10;30.78;42.55;;
64996;Laerm;51545;51.568;6.998;2023-04-03T00:17:31;37.91;31.23;57.05;;
64996;Laerm;51545;51.568;6.998;2023-04-03T00:19:57;37.65;33.19;42.48;;
64996;Laerm;51545;51.568;6.998;2023-04-03T00:22:22;35.47;29.31;44.38;;
64996;Laerm;51545;51.568;6.998;2023-04-03T00:24:48;34.95;30.29;39.73;;
64996;Laerm;51545;51.568;6.998;2023-04-03T00:27:13;36.23;30.68;42.58;;
64996;Laerm;51545;51.568;6.998;2023-04-03T00:29:39;34.38;30.54;39.10;;
64996;Laerm;51545;51.568;6.998;2023-04-03T00:32:04;35.39;31.04;40.25;;
64996;Laerm;51545;51.568;6.998;2023-04-03T00:34:30;35.99;31.31;39.38;;
64996;Laerm;51545;51.568;6.998;2023-04-03T00:36:55;34.00;30.72;39.16;;
64996;Laerm;51545;51.568;6.998;2023-04-03T00:39:22;37.04;30.76;43.47;;
64996;Laerm;51545;51.568;6.998;2023-04-03T00:41:47;36.55;30.34;49.26;;
64996;Laerm;51545;51.568;6.998;2023-04-03T00:45:23;37.08;30.49;44.00;;
64996;Laerm;51545;51.568;6.998;2023-04-03T00:47:11;36.52;31.82;41.30;;
64996;Laerm;51545;51.568;6.998;2023-04-03T00:49:38;36.81;31.60;41.69;;
64996;Laerm;51545;51.568;6.998;2023-04-03T00:52:05;36.89;32.86;41.30;;
64996;Laerm;51545;51.568;6.998;2023-04-03T00:54:35;36.55;32.83;41.98;;
64996;Laerm;51545;51.568;6.998;2023-04-03T00:57:02;37.12;32.81;41.52;;
64996;Laerm;51545;51.568;6.998;2023-04-03T00:59:32;36.84;32.99;41.03;;
64996;Laerm;51545;51.568;6.998;2023-04-03T01:01:59;35.74;31.55;41.79;;
64996;Laerm;51545;51.568;6.998;2023-04-03T01:04:31;38.74;32.47;43.08;;
64996;Laerm;51545;51.568;6.998;2023-04-03T01:07:04;35.89;31.11;40.03;;
64996;Laerm;51545;51.568;6.998;2023-04-03T01:09:32;35.75;30.02;41.19;;
64996;Laerm;51545;51.568;6.998;2023-04-03T01:12:18;38.02;33.52;43.21;;
64996;Laerm;51545;51.568;6.998;2023-04-03T01:14:44;37.26;31.18;43.21;;
64996;Laerm;51545;51.568;6.998;2023-04-03T01:17:53;34.02;29.77;40.03;;
64996;Laerm;51545;51.568;6.998;2023-04-03T01:28:04;37.95;33.81;44.09;;
64996;Laerm;51545;51.568;6.998;2023-04-03T01:30:33;35.59;31.46;42.85;;
64996;Laerm;51545;51.568;6.998;2023-04-03T01:33:00;39.38;33.30;51.89;;
64996;Laerm;51545;51.568;6.998;2023-04-03T01:35:26;38.81;34.86;44.38;;
64996;Laerm;51545;51.568;6.998;2023-04-03T01:37:52;37.25;31.96;43.11;;
64996;Laerm;51545;51.568;6.998;2023-04-03T01:40:17;37.05;32.29;43.48;;
64996;Laerm;51545;51.568;6.998;2023-04-03T01:42:43;37.48;33.29;41.68;;
64996;Laerm;51545;51.568;6.998;2023-04-03T01:45:09;36.89;32.47;42.09;;
64996;Laerm;51545;51.568;6.998;2023-04-03T01:47:34;37.12;31.33;42.34;;
64996;Laerm;51545;51.568;6.998;2023-04-03T01:50:00;35.28;31.46;39.56;;
64996;Laerm;51545;51.568;6.998;2023-04-03T01:52:26;38.00;33.04;49.57;;
64996;Laerm;51545;51.568;6.998;2023-04-03T01:54:51;37.78;34.28;42.94;;
64996;Laerm;51545;51.568;6.998;2023-04-03T01:57:16;36.92;32.31;49.03;;
64996;Laerm;51545;51.568;6.998;2023-04-03T01:59:42;37.88;33.74;41.91;;
64996;Laerm;51545;51.568;6.998;2023-04-03T02:02:07;40.23;33.86;48.90;;
64996;Laerm;51545;51.568;6.998;2023-04-03T02:04:33;37.99;33.98;42.46;;
64996;Laerm;51545;51.568;6.998;2023-04-03T02:06:58;36.88;32.11;41.98;;
64996;Laerm;51545;51.568;6.998;2023-04-03T02:09:24;38.30;34.46;51.91;;
64996;Laerm;51545;51.568;6.998;2023-04-03T02:11:49;37.13;32.96;59.90;;
64996;Laerm;51545;51.568;6.998;2023-04-03T02:14:15;39.18;34.60;49.92;;
64996;Laerm;51545;51.568;6.998;2023-04-03T02:16:41;38.49;32.84;51.29;;
64996;Laerm;51545;51.568;6.998;2023-04-03T02:19:07;38.12;33.73;48.89;;
64996;Laerm;51545;51.568;6.998;2023-04-03T02:21:33;38.71;34.89;49.69;;
64996;Laerm;51545;51.568;6.998;2023-04-03T02:23:59;38.85;34.55;48.45;;
64996;Laerm;51545;51.568;6.998;2023-04-03T02:26:25;38.67;34.31;52.03;;
64996;Laerm;51545;51.568;6.998;2023-04-03T02:28:51;41.38;35.50;58.77;;
64996;Laerm;51545;51.568;6.998;2023-04-03T02:31:17;40.90;34.77;58.27;;
64996;Laerm;51545;51.568;6.998;2023-04-03T02:33:43;42.02;35.33;58.01;;
64996;Laerm;51545;51.568;6.998;2023-04-03T02:36:08;40.95;32.64;58.97;;
64996;Laerm;51545;51.568;6.998;2023-04-03T02:38:34;41.87;36.25;55.52;;
64996;Laerm;51545;51.568;6.998;2023-04-03T02:41:05;41.80;35.35;57.63;;
64996;Laerm;51545;51.568;6.998;2023-04-03T02:43:31;41.33;33.16;55.97;;
64996;Laerm;51545;51.568;6.998;2023-04-03T02:45:57;41.56;36.01;56.74;;
64996;Laerm;51545;51.568;6.998;2023-04-03T02:48:23;41.54;35.12;60.41;;
64996;Laerm;51545;51.568;6.998;2023-04-03T02:50:48;42.70;35.47;58.67;;
64996;Laerm;51545;51.568;6.998;2023-04-03T02:53:14;42.61;36.58;60.90;;
64996;Laerm;51545;51.568;6.998;2023-04-03T02:55:40;41.21;35.10;59.96;;
64996;Laerm;51545;51.568;6.998;2023-04-03T02:58:06;42.32;36.37;59.85;;
64996;Laerm;51545;51.568;6.998;2023-04-03T03:00:31;40.76;35.30;56.55;;
64996;Laerm;51545;51.568;6.998;2023-04-03T03:02:57;40.31;36.67;44.35;;
64996;Laerm;51545;51.568;6.998;2023-04-03T03:05:22;41.12;36.54;44.85;;
64996;Laerm;51545;51.568;6.998;2023-04-03T03:07:48;43.75;36.53;64.25;;
64996;Laerm;51545;51.568;6.998;2023-04-03T03:10:14;41.11;37.06;48.08;;
64996;Laerm;51545;51.568;6.998;2023-04-03T03:12:39;40.64;36.26;47.79;;
64996;Laerm;51545;51.568;6.998;2023-04-03T03:15:06;40.51;36.81;48.27;;
64996;Laerm;51545;51.568;6.998;2023-04-03T03:17:32;41.12;36.83;46.62;;
64996;Laerm;51545;51.568;6.998;2023-04-03T03:19:57;42.14;39.09;53.91;;
64996;Laerm;51545;51.568;6.998;2023-04-03T03:22:23;41.44;37.41;50.01;;
64996;Laerm;51545;51.568;6.998;2023-04-03T03:24:48;41.99;38.16;52.29;;
64996;Laerm;51545;51.568;6.998;2023-04-03T03:27:14;43.18;39.64;51.77;;
64996;Laerm;51545;51.568;6.998;2023-04-03T03:29:41;41.78;37.02;51.00;;
64996;Laerm;51545;51.568;6.998;2023-04-03T03:32:07;42.87;39.68;49.86;;
64996;Laerm;51545;51.568;6.998;2023-04-03T03:34:33;42.02;38.70;51.05;;
64996;Laerm;51545;51.568;6.998;2023-04-03T03:36:58;42.19;38.72;50.66;;
64996;Laerm;51545;51.568;6.998;2023-04-03T03:39:24;43.72;37.88;62.94;;
64996;Laerm;51545;51.568;6.998;2023-04-03T03:41:50;48.29;37.82;69.95;;
64996;Laerm;51545;51.568;6.998;2023-04-03T03:44:15;56.59;39.06;74.40;;
64996;Laerm;51545;51.568;6.998;2023-04-03T03:46:40;55.36;38.00;72.93;;
64996;Laerm;51545;51.568;6.998;2023-04-03T03:49:06;56.36;38.30;73.83;;
64996;Laerm;51545;51.568;6.998;2023-04-03T03:51:32;57.02;39.51;73.21;;
64996;Laerm;51545;51.568;6.998;2023-04-03T03:53:57;56.33;39.18;70.14;;
64996;Laerm;51545;51.568;6.998;2023-04-03T03:56:23;55.44;40.11;71.57;;
64996;Laerm;51545;51.568;6.998;2023-04-03T03:58:48;51.96;38.48;63.74;;
64996;Laerm;51545;51.568;6.998;2023-04-03T04:01:14;52.50;38.11;66.32;;
64996;Laerm;51545;51.568;6.998;2023-04-03T04:03:40;51.50;38.57;66.21;;
64996;Laerm;51545;51.568;6.998;2023-04-03T04:06:06;51.42;38.06;67.44;;
64996;Laerm;51545;51.568;6.998;2023-04-03T04:08:32;56.34;40.38;71.61;;
64996;Laerm;51545;51.568;6.998;2023-04-03T04:10:58;55.63;38.39;70.87;;
64996;Laerm;51545;51.568;6.998;2023-04-03T04:13:24;56.46;38.98;71.21;;
64996;Laerm;51545;51.568;6.998;2023-04-03T04:15:50;56.14;39.55;70.57;;
64996;Laerm;51545;51.568;6.998;2023-04-03T04:18:15;56.40;39.59;71.60;;
64996;Laerm;51545;51.568;6.998;2023-04-03T04:20:41;52.06;40.77;66.43;;
64996;Laerm;51545;51.568;6.998;2023-04-03T04:23:06;49.35;38.06;64.04;;
64996;Laerm;51545;51.568;6.998;2023-04-03T04:25:32;50.28;39.83;69.20;;
64996;Laerm;51545;51.568;6.998;2023-04-03T04:27:58;49.36;38.45;63.73;;
64996;Laerm;51545;51.568;6.998;2023-04-03T04:30:23;53.52;38.69;67.51;;
64996;Laerm;51545;51.568;6.998;2023-04-03T04:32:49;46.08;39.18;57.72;;
64996;Laerm;51545;51.568;6.998;2023-04-03T04:35:15;48.84;39.44;64.26;;
64996;Laerm;51545;51.568;6.998;2023-04-03T04:37:41;47.05;39.18;65.19;;
64996;Laerm;51545;51.568;6.998;2023-04-03T04:40:07;47.74;39.87;67.36;;
64996;Laerm;51545;51.568;6.998;2023-04-03T04:42:32;47.45;39.95;63.85;;
64996;Laerm;51545;51.568;6.998;2023-04-03T04:44:58;43.91;39.39;54.74;;
64996;Laerm;51545;51.568;6.998;2023-04-03T04:47:23;45.93;38.19;67.13;;
64996;Laerm;51545;51.568;6.998;2023-04-03T04:49:49;48.26;39.62;66.45;;
64996;Laerm;51545;51.568;6.998;2023-04-03T04:52:15;47.89;40.12;71.78;;
64996;Laerm;51545;51.568;6.998;2023-04-03T04:54:41;46.38;38.57;64.93;;
64996;Laerm;51545;51.568;6.998;2023-04-03T04:57:07;46.47;39.99;58.83;;
64996;Laerm;51545;51.568;6.998;2023-04-03T04:59:32;46.54;39.89;57.88;;
64996;Laerm;51545;51.568;6.998;2023-04-03T05:01:58;45.88;39.66;59.73;;
64996;Laerm;51545;51.568;6.998;2023-04-03T05:04:23;49.29;40.04;68.31;;
64996;Laerm;51545;51.568;6.998;2023-04-03T05:06:49;50.76;38.57;73.62;;
64996;Laerm;51545;51.568;6.998;2023-04-03T05:09:14;53.36;39.53;71.09;;
64996;Laerm;51545;51.568;6.998;2023-04-03T05:11:40;48.63;39.22;70.10;;
64996;Laerm;51545;51.568;6.998;2023-04-03T05:14:05;47.54;39.57;70.15;;
64996;Laerm;51545;51.568;6.998;2023-04-03T05:16:32;53.94;39.94;72.23;;
64996;Laerm;51545;51.568;6.998;2023-04-03T05:18:58;53.85;39.57;73.28;;
64996;Laerm;51545;51.568;6.998;2023-04-03T05:21:23;52.23;39.39;73.81;;
64996;Laerm;51545;51.568;6.998;2023-04-03T05:23:51;49.45;40.53;73.38;;
64996;Laerm;51545;51.568;6.998;2023-04-03T05:26:17;44.12;40.43;53.39;;
64996;Laerm;51545;51.568;6.998;2023-04-03T05:28:42;46.11;40.33;61.00;;
64996;Laerm;51545;51.568;6.998;2023-04-03T05:31:08;47.47;40.57;66.64;;
64996;Laerm;51545;51.568;6.998;2023-04-03T05:33:33;46.03;40.57;66.05;;
64996;Laerm;51545;51.568;6.998;2023-04-03T05:36:03;45.44;40.22;62.03;;
64996;Laerm;51545;51.568;6.998;2023-04-03T05:38:28;46.90;40.30;59.76;;
64996;Laerm;51545;51.568;6.998;2023-04-03T05:40:54;46.03;40.96;55.02;;
64996;Laerm;51545;51.568;6.998;2023-04-03T05:43:20;44.41;40.26;52.86;;
64996;Laerm;51545;51.568;6.998;2023-04-03T05:45:47;46.32;41.16;57.24;;
64996;Laerm;51545;51.568;6.998;2023-04-03T05:48:12;46.90;40.96;57.41;;
64996;Laerm;51545;51.568;6.998;2023-04-03T05:50:38;46.72;41.36;58.95;;
64996;Laerm;51545;51.568;6.998;2023-04-03T05:53:07;45.93;40.83;56.57;;
64996;Laerm;51545;51.568;6.998;2023-04-03T05:55:33;45.19;41.12;54.49;;
64996;Laerm;51545;51.568;6.998;2023-04-03T05:57:59;43.84;39.81;56.00;;
64996;Laerm;51545;51.568;6.998;2023-04-03T06:00:25;43.83;39.25;61.89;;
64996;Laerm;51545;51.568;6.998;2023-04-03T06:02:50;44.16;40.34;56.05;;
64996;Laerm;51545;51.568;6.998;2023-04-03T06:05:15;43.77;39.77;52.90;;
64996;Laerm;51545;51.568;6.998;2023-04-03T06:07:41;43.62;39.30;51.31;;
64996;Laerm;51545;51.568;6.998;2023-04-03T06:10:07;48.39;38.71;62.91;;
64996;Laerm;51545;51.568;6.998;2023-04-03T06:12:33;48.04;39.73;64.38;;
64996;Laerm;51545;51.568;6.998;2023-04-03T06:14:59;45.62;38.74;61.83;;
64996;Laerm;51545;51.568;6.998;2023-04-03T06:17:25;47.56;41.44;62.37;;
64996;Laerm;51545;51.568;6.998;2023-04-03T06:19:50;47.13;39.74;63.02;;
64996;Laerm;51545;51.568;6.998;2023-04-03T06:22:16;45.37;39.62;63.64;;
64996;Laerm;51545;51.568;6.998;2023-04-03T06:24:41;44.02;39.29;60.05;;
64996;Laerm;51545;51.568;6.998;2023-04-03T06:27:07;43.53;39.19;64.62;;
64996;Laerm;51545;51.568;6.998;2023-04-03T06:29:33;42.55;36.52;52.14;;
64996;Laerm;51545;51.568;6.998;2023-04-03T06:31:58;51.21;38.31;78.67;;
64996;Laerm;51545;51.568;6.998;2023-04-03T06:34:23;48.25;43.33;66.69;;
64996;Laerm;51545;51.568;6.998;2023-04-03T06:36:49;45.09;39.20;58.10;;
64996;Laerm;51545;51.568;6.998;2023-04-03T06:39:18;44.32;39.14;57.71;;
64996;Laerm;51545;51.568;6.998;2023-04-03T06:41:45;45.21;39.40;55.12;;
64996;Laerm;51545;51.568;6.998;2023-04-03T06:44:10;42.97;38.32;58.03;;
64996;Laerm;51545;51.568;6.998;2023-04-03T06:46:38;44.99;39.24;62.45;;
64996;Laerm;51545;51.568;6.998;2023-04-03T06:49:04;42.14;37.39;55.20;;
64996;Laerm;51545;51.568;6.998;2023-04-03T06:51:30;42.35;38.12;60.74;;
64996;Laerm;51545;51.568;6.998;2023-04-03T06:53:58;42.28;38.52;54.96;;
64996;Laerm;51545;51.568;6.998;2023-04-03T06:56:24;51.32;38.03;75.93;;
64996;Laerm;51545;51.568;6.998;2023-04-03T06:58:51;46.13;38.77;72.01;;
64996;Laerm;51545;51.568;6.998;2023-04-03T07:01:17;42.25;36.35;54.65;;
64996;Laerm;51545;51.568;6.998;2023-04-03T07:03:44;43.53;38.58;61.39;;
64996;Laerm;51545;51.568;6.998;2023-04-03T07:06:12;43.78;39.20;57.86;;
64996;Laerm;51545;51.568;6.998;2023-04-03T07:08:38;43.91;39.51;59.19;;
64996;Laerm;51545;51.568;6.998;2023-04-03T07:11:05;45.24;38.73;57.94;;
64996;Laerm;51545;51.568;6.998;2023-04-03T07:13:31;45.30;39.28;57.90;;
64996;Laerm;51545;51.568;6.998;2023-04-03T07:15:58;43.05;39.20;52.15;;
64996;Laerm;51545;51.568;6.998;2023-04-03T07:18:24;51.47;40.20;69.10;;
64996;Laerm;51545;51.568;6.998;2023-04-03T07:20:49;49.24;39.59;71.95;;
64996;Laerm;51545;51.568;6.998;2023-04-03T07:23:15;46.68;38.87;61.28;;
64996;Laerm;51545;51.568;6.998;2023-04-03T07:25:45;47.14;39.15;62.12;;
64996;Laerm;51545;51.568;6.998;2023-04-03T07:28:11;43.39;38.95;54.29;;
64996;Laerm;51545;51.568;6.998;2023-04-03T07:30:49;44.67;40.06;55.70;;
64996;Laerm;51545;51.568;6.998;2023-04-03T07:33:16;44.52;39.86;56.72;;
64996;Laerm;51545;51.568;6.998;2023-04-03T07:35:43;53.76;39.98;67.80;;
64996;Laerm;51545;51.568;6.998;2023-04-03T07:38:10;49.11;38.94;73.58;;
64996;Laerm;51545;51.568;6.998;2023-04-03T07:40:36;45.87;37.99;59.10;;
64996;Laerm;51545;51.568;6.998;2023-04-03T07:43:01;44.60;39.27;65.54;;
64996;Laerm;51545;51.568;6.998;2023-04-03T07:45:28;44.58;38.67;63.31;;
64996;Laerm;51545;51.568;6.998;2023-04-03T07:47:53;45.13;38.97;55.24;;
64996;Laerm;51545;51.568;6.998;2023-04-03T07:50:19;42.42;37.73;56.70;;
64996;Laerm;51545;51.568;6.998;2023-04-03T07:52:45;43.61;38.48;61.84;;
64996;Laerm;51545;51.568;6.998;2023-04-03T07:55:11;43.83;38.31;62.36;;
64996;Laerm;51545;51.568;6.998;2023-04-03T07:57:37;42.27;38.15;52.72;;
64996;Laerm;51545;51.568;6.998;2023-04-03T08:00:04;44.22;37.66;57.52;;
64996;Laerm;51545;51.568;6.998;2023-04-03T08:02:30;46.41;36.91;62.71;;
64996;Laerm;51545;51.568;6.998;2023-04-03T08:04:58;44.73;38.33;59.58;;
64996;Laerm;51545;51.568;6.998;2023-04-03T08:07:24;49.39;39.00;62.57;;
64996;Laerm;51545;51.568;6.998;2023-04-03T08:09:50;46.44;39.23;64.12;;
64996;Laerm;51545;51.568;6.998;2023-04-03T08:12:16;44.68;39.09;56.54;;
64996;Laerm;51545;51.568;6.998;2023-04-03T08:14:42;43.33;37.72;56.59;;
64996;Laerm;51545;51.568;6.998;2023-04-03T08:17:08;42.39;37.46;58.50;;
64996;Laerm;51545;51.568;6.998;2023-04-03T08:19:37;42.98;36.30;61.81;;
64996;Laerm;51545;51.568;6.998;2023-04-03T08:22:03;46.40;39.09;66.15;;
64996;Laerm;51545;51.568;6.998;2023-04-03T08:24:30;47.00;40.67;62.00;;
64996;Laerm;51545;51.568;6.998;2023-04-03T08:26:56;49.50;40.30;66.88;;
64996;Laerm;51545;51.568;6.998;2023-04-03T08:29:21;47.62;38.58;66.69;;
64996;Laerm;51545;51.568;6.998;2023-04-03T08:31:47;44.68;37.44;64.06;;
64996;Laerm;51545;51.568;6.998;2023-04-03T08:34:14;43.97;38.63;58.29;;
64996;Laerm;51545;51.568;6.998;2023-04-03T08:36:40;47.32;37.31;63.80;;
64996;Laerm;51545;51.568;6.998;2023-04-03T08:39:06;45.50;38.04;57.85;;
64996;Laerm;51545;51.568;6.998;2023-04-03T08:41:33;43.67;38.24;57.55;;
64996;Laerm;51545;51.568;6.998;2023-04-03T08:44:20;45.21;37.81;63.33;;
64996;Laerm;51545;51.568;6.998;2023-04-03T08:49:37;50.86;37.65;72.19;;
64996;Laerm;51545;51.568;6.998;2023-04-03T08:52:11;51.41;38.70;70.97;;
64996;Laerm;51545;51.568;6.998;2023-04-03T08:54:49;45.83;39.79;71.12;;
64996;Laerm;51545;51.568;6.998;2023-04-03T08:57:17;45.92;37.91;67.29;;
64996;Laerm;51545;51.568;6.998;2023-04-03T08:59:45;43.60;38.78;54.38;;
64996;Laerm;51545;51.568;6.998;2023-04-03T09:04:52;44.09;39.19;57.21;;
64996;Laerm;51545;51.568;6.998;2023-04-03T09:07:25;42.91;39.03;57.02;;
64996;Laerm;51545;51.568;6.998;2023-04-03T09:09:59;62.78;37.85;88.10;;
64996;Laerm;51545;51.568;6.998;2023-04-03T09:12:49;62.53;39.01;96.59;;
64996;Laerm;51545;51.568;6.998;2023-04-03T09:15:23;42.02;38.52;57.46;;
64996;Laerm;51545;51.568;6.998;2023-04-03T09:23:25;44.37;40.02;55.68;;
64996;Laerm;51545;51.568;6.998;2023-04-03T09:25:57;50.32;39.01;65.50;;
64996;Laerm;51545;51.568;6.998;2023-04-03T09:28:26;45.97;38.51;71.55;;
64996;Laerm;51545;51.568;6.998;2023-04-03T09:30:53;55.45;38.88;73.71;;
64996;Laerm;51545;51.568;6.998;2023-04-03T09:33:19;54.62;39.53;74.83;;
64996;Laerm;51545;51.568;6.998;2023-04-03T09:35:47;44.43;39.34;56.44;;
64996;Laerm;51545;51.568;6.998;2023-04-03T09:40:41;46.34;39.17;58.91;;
64996;Laerm;51545;51.568;6.998;2023-04-03T09:45:47;42.64;38.38;54.53;;
64996;Laerm;51545;51.568;6.998;2023-04-03T09:53:40;44.53;38.08;61.10;;
64996;Laerm;51545;51.568;6.998;2023-04-03T09:58:44;45.51;36.97;63.91;;
64996;Laerm;51545;51.568;6.998;2023-04-03T10:01:29;44.64;36.62;60.54;;
64996;Laerm;51545;51.568;6.998;2023-04-03T10:06:47;49.12;38.08;63.93;;
64996;Laerm;51545;51.568;6.998;2023-04-03T10:09:26;46.82;37.82;68.44;;
64996;Laerm;51545;51.568;6.998;2023-04-03T10:12:09;44.91;37.44;66.98;;
64996;Laerm;51545;51.568;6.998;2023-04-03T10:17:32;46.73;37.40;63.97;;
64996;Laerm;51545;51.568;6.998;2023-04-03T10:28:04;44.69;36.03;64.26;;
64996;Laerm;51545;51.568;6.998;2023-04-03T10:36:17;45.93;37.56;60.47;;
64996;Laerm;51545;51.568;6.998;2023-04-03T10:48:01;45.85;36.34;62.85;;
64996;Laerm;51545;51.568;6.998;2023-04-03T10:58:32;45.54;36.07;65.91;;
64996;Laerm;51545;51.568;6.998;2023-04-03T11:01:05;48.74;38.53;69.20;;
64996;Laerm;51545;51.568;6.998;2023-04-03T11:03:54;51.42;37.58;68.57;;
64996;Laerm;51545;51.568;6.998;2023-04-03T11:06:25;47.38;39.34;70.55;;
64996;Laerm;51545;51.568;6.998;2023-04-03T11:09:09;47.07;37.63;69.92;;
64996;Laerm;51545;51.568;6.998;2023-04-03T11:11:42;46.18;36.41;63.40;;
64996;Laerm;51545;51.568;6.998;2023-04-03T11:14:29;47.02;36.13;68.57;;
64996;Laerm;51545;51.568;6.998;2023-04-03T11:17:04;43.41;36.39;60.01;;
64996;Laerm;51545;51.568;6.998;2023-04-03T11:19:44;49.14;38.36;73.43;;
64996;Laerm;51545;51.568;6.998;2023-04-03T11:22:30;46.11;37.23;67.90;;
64996;Laerm;51545;51.568;6.998;2023-04-03T11:30:13;49.05;41.75;64.38;;
64996;Laerm;51545;51.568;6.998;2023-04-03T11:35:18;47.22;39.07;61.49;;
64996;Laerm;51545;51.568;6.998;2023-04-03T11:37:48;46.02;39.51;64.98;;
64996;Laerm;51545;51.568;6.998;2023-04-03T11:42:47;46.31;38.77;65.09;;
64996;Laerm;51545;51.568;6.998;2023-04-03T11:50:48;45.30;37.78;64.41;;
64996;Laerm;51545;51.568;6.998;2023-04-03T11:58:21;41.02;35.42;55.00;;
64996;Laerm;51545;51.568;6.998;2023-04-03T12:21:23;48.76;39.21;66.98;;
64996;Laerm;51545;51.568;6.998;2023-04-03T12:43:08;45.10;36.75;61.11;;
64996;Laerm;51545;51.568;6.998;2023-04-03T12:46:03;44.19;35.74;65.54;;
64996;Laerm;51545;51.568;6.998;2023-04-03T12:48:31;41.39;35.22;61.17;;
64996;Laerm;51545;51.568;6.998;2023-04-03T12:50:59;42.33;35.58;58.67;;
64996;Laerm;51545;51.568;6.998;2023-04-03T12:53:28;54.10;38.29;77.38;;
64996;Laerm;51545;51.568;6.998;2023-04-03T12:56:29;45.07;38.05;63.40;;
64996;Laerm;51545;51.568;6.998;2023-04-03T12:59:24;45.45;39.21;61.81;;
64996;Laerm;51545;51.568;6.998;2023-04-03T13:02:00;45.74;37.66;59.79;;
64996;Laerm;51545;51.568;6.998;2023-04-03T13:04:31;45.81;36.84;67.52;;
64996;Laerm;51545;51.568;6.998;2023-04-03T13:06:57;45.35;37.19;57.02;;
64996;Laerm;51545;51.568;6.998;2023-04-03T13:09:28;44.01;37.55;55.93;;
64996;Laerm;51545;51.568;6.998;2023-04-03T13:12:11;45.90;36.59;68.86;;
64996;Laerm;51545;51.568;6.998;2023-04-03T13:14:37;48.00;37.66;63.42;;
64996;Laerm;51545;51.568;6.998;2023-04-03T13:17:09;44.57;37.38;63.22;;
64996;Laerm;51545;51.568;6.998;2023-04-03T13:19:36;46.86;37.91;61.02;;
64996;Laerm;51545;51.568;6.998;2023-04-03T13:22:06;49.82;36.72;67.54;;
64996;Laerm;51545;51.568;6.998;2023-04-03T13:24:36;46.73;35.73;70.47;;
64996;Laerm;51545;51.568;6.998;2023-04-03T13:27:04;47.23;37.24;62.43;;
64996;Laerm;51545;51.568;6.998;2023-04-03T13:29:32;48.44;35.97;70.59;;
64996;Laerm;51545;51.568;6.998;2023-04-03T13:32:00;45.66;37.13;63.33;;
64996;Laerm;51545;51.568;6.998;2023-04-03T13:34:29;43.76;36.28;62.54;;
64996;Laerm;51545;51.568;6.998;2023-04-03T13:36:59;43.89;35.63;65.58;;
64996;Laerm;51545;51.568;6.998;2023-04-03T13:39:34;45.19;37.71;65.57;;
64996;Laerm;51545;51.568;6.998;2023-04-03T13:42:23;47.12;36.87;65.67;;
64996;Laerm;51545;51.568;6.998;2023-04-03T13:44:48;51.84;37.64;71.15;;
64996;Laerm;51545;51.568;6.998;2023-04-03T13:47:19;54.20;38.01;75.12;;
64996;Laerm;51545;51.568;6.998;2023-04-03T13:49:59;53.74;37.20;80.60;;
64996;Laerm;51545;51.568;6.998;2023-04-03T13:52:32;54.58;37.48;79.33;;
64996;Laerm;51545;51.568;6.998;2023-04-03T13:55:25;48.77;36.42;69.55;;
64996;Laerm;51545;51.568;6.998;2023-04-03T13:58:00;44.26;35.31;60.52;;
64996;Laerm;51545;51.568;6.998;2023-04-03T14:00:37;48.19;38.23;68.83;;
64996;Laerm;51545;51.568;6.998;2023-04-03T14:03:23;45.46;37.55;59.99;;
64996;Laerm;51545;51.568;6.998;2023-04-03T14:05:49;45.39;36.38;62.41;;
64996;Laerm;51545;51.568;6.998;2023-04-03T14:08:15;47.76;36.48;66.52;;
64996;Laerm;51545;51.568;6.998;2023-04-03T14:10:41;45.67;36.93;68.48;;
64996;Laerm;51545;51.568;6.998;2023-04-03T14:13:11;44.67;36.23;66.84;;
64996;Laerm;51545;51.568;6.998;2023-04-03T14:15:37;46.00;36.04;68.52;;
64996;Laerm;51545;51.568;6.998;2023-04-03T14:18:02;45.37;38.26;62.64;;
64996;Laerm;51545;51.568;6.998;2023-04-03T14:20:28;44.49;36.18;63.92;;
64996;Laerm;51545;51.568;6.998;2023-04-03T14:22:54;44.28;37.16;61.26;;
64996;Laerm;51545;51.568;6.998;2023-04-03T14:25:22;43.80;36.70;59.13;;
64996;Laerm;51545;51.568;6.998;2023-04-03T14:27:50;50.96;37.22;73.43;;
64996;Laerm;51545;51.568;6.998;2023-04-03T14:30:22;42.23;37.27;53.14;;
64996;Laerm;51545;51.568;6.998;2023-04-03T14:32:48;42.55;36.45;55.40;;
64996;Laerm;51545;51.568;6.998;2023-04-03T14:35:15;44.43;36.90;57.21;;
64996;Laerm;51545;51.568;6.998;2023-04-03T14:37:42;41.07;34.99;53.54;;
64996;Laerm;51545;51.568;6.998;2023-04-03T14:40:11;44.48;35.95;63.61;;
64996;Laerm;51545;51.568;6.998;2023-04-03T14:42:37;41.40;35.93;55.23;;
64996;Laerm;51545;51.568;6.998;2023-04-03T14:45:06;43.51;37.12;70.36;;
64996;Laerm;51545;51.568;6.998;2023-04-03T14:47:39;44.45;35.92;65.72;;
64996;Laerm;51545;51.568;6.998;2023-04-03T14:50:07;43.94;35.87;65.83;;
64996;Laerm;51545;51.568;6.998;2023-04-03T14:52:35;42.12;36.28;63.60;;
64996;Laerm;51545;51.568;6.998;2023-04-03T14:55:02;42.88;38.40;54.56;;
64996;Laerm;51545;51.568;6.998;2023-04-03T14:57:29;43.10;36.64;61.13;;
64996;Laerm;51545;51.568;6.998;2023-04-03T14:59:55;45.05;36.95;63.02;;
64996;Laerm;51545;51.568;6.998;2023-04-03T15:02:30;46.94;37.91;68.24;;
64996;Laerm;51545;51.568;6.998;2023-04-03T15:04:57;47.58;38.69;67.61;;
64996;Laerm;51545;51.568;6.998;2023-04-03T15:07:25;45.89;37.53;65.00;;
64996;Laerm;51545;51.568;6.998;2023-04-03T15:09:51;47.44;37.74;65.68;;
64996;Laerm;51545;51.568;6.998;2023-04-03T15:12:17;46.65;38.61;66.25;;
64996;Laerm;51545;51.568;6.998;2023-04-03T15:14:43;45.85;38.82;61.32;;
64996;Laerm;51545;51.568;6.998;2023-04-03T15:17:17;44.93;38.87;63.42;;
64996;Laerm;51545;51.568;6.998;2023-04-03T15:19:45;48.06;39.24;64.22;;
64996;Laerm;51545;51.568;6.998;2023-04-03T15:22:16;47.39;39.46;61.62;;
64996;Laerm;51545;51.568;6.998;2023-04-03T15:24:43;46.21;40.13;59.55;;
64996;Laerm;51545;51.568;6.998;2023-04-03T15:27:09;47.25;40.08;66.18;;
64996;Laerm;51545;51.568;6.998;2023-04-03T15:29:36;43.64;38.32;61.09;;
64996;Laerm;51545;51.568;6.998;2023-04-03T15:32:01;43.72;37.69;54.23;;
64996;Laerm;51545;51.568;6.998;2023-04-03T15:34:28;46.33;38.31;61.49;;
64996;Laerm;51545;51.568;6.998;2023-04-03T15:36:54;49.74;39.03;64.69;;
64996;Laerm;51545;51.568;6.998;2023-04-03T15:39:20;46.65;36.66;61.49;;
64996;Laerm;51545;51.568;6.998;2023-04-03T15:41:46;44.80;36.18;68.10;;
64996;Laerm;51545;51.568;6.998;2023-04-03T15:44:11;46.00;37.40;61.00;;
64996;Laerm;51545;51.568;6.998;2023-04-03T15:46:38;46.60;36.88;65.49;;
64996;Laerm;51545;51.568;6.998;2023-04-03T15:49:05;45.98;35.44;62.09;;
64996;Laerm;51545;51.568;6.998;2023-04-03T15:51:31;44.36;36.78;64.97;;
64996;Laerm;51545;51.568;6.998;2023-04-03T15:53:56;44.18;37.35;58.12;;
64996;Laerm;51545;51.568;6.998;2023-04-03T15:56:22;41.98;36.22;69.83;;
64996;Laerm;51545;51.568;6.998;2023-04-03T15:58:47;42.95;36.06;56.30;;